D90 weather

Mancelona Municipal Airport
Mancelona, Michigan, United States

Public forecast

Using degrees Fahrenheit for public forecast. Weather courtesy of forecast.io.

METAR (pilot weather report)

Closest report is Antrim County Airport, 6.8 nm (12.5 km) NW. Retrieved 2019/06/16 21:35 UTC (22 minutes ago):

KACB 162135Z AUTO 00000KT 10SM BKN038 20/10 A2994 RMK AO2 T01980096

TAF (pilot weather forecast)

Closest forecast is Cherry Capital Airport, 24.6 nm (45.5 km) WSW. Retrieved 2019/06/16 18:39 UTC (3 hours ago):

TAF KTVC 161735Z 1618/1718 03006KT P6SM -SHRA SCT050 BKN090 FM161900 03006KT P6SM BKN100 FM170000 VRB04KT P6SM SCT100 FM170800 00000KT P6SM SCT200 FM171500 VRB03KT P6SM SCT150